sensor_id;sensor_type;location;lat;lon;timestamp;pressure;altitude;pressure_sealevel;temperature
67515;BMP280;60646;55.802;37.032;2023-02-26T00:00:05;97205.59;;;7.26
67515;BMP280;60646;55.802;37.032;2023-02-26T00:02:34;97198.13;;;7.24
67515;BMP280;60646;55.802;37.032;2023-02-26T00:05:02;97188.53;;;7.21
67515;BMP280;60646;55.802;37.032;2023-02-26T00:07:28;97177.94;;;7.21
67515;BMP280;60646;55.802;37.032;2023-02-26T00:09:54;97182.97;;;7.33
67515;BMP280;60646;55.802;37.032;2023-02-26T00:12:20;97151.88;;;7.20
67515;BMP280;60646;55.802;37.032;2023-02-26T00:14:47;97142.13;;;7.15
67515;BMP280;60646;55.802;37.032;2023-02-26T00:17:41;97170.41;;;7.33
67515;BMP280;60646;55.802;37.032;2023-02-26T00:20:09;97157.47;;;7.30
67515;BMP280;60646;55.802;37.032;2023-02-26T00:22:41;97134.22;;;7.22
67515;BMP280;60646;55.802;37.032;2023-02-26T00:25:08;97108.72;;;6.99
67515;BMP280;60646;55.802;37.032;2023-02-26T00:27:34;97134.44;;;7.24
67515;BMP280;60646;55.802;37.032;2023-02-26T00:30:02;97112.31;;;7.09
67515;BMP280;60646;55.802;37.032;2023-02-26T00:32:30;97110.91;;;7.08
67515;BMP280;60646;55.802;37.032;2023-02-26T00:34:56;97111.59;;;7.08
67515;BMP280;60646;55.802;37.032;2023-02-26T00:43:01;97112.66;;;7.05
67515;BMP280;60646;55.802;37.032;2023-02-26T00:45:27;97098.09;;;6.99
67515;BMP280;60646;55.802;37.032;2023-02-26T00:48:15;97132.28;;;7.23
67515;BMP280;60646;55.802;37.032;2023-02-26T00:51:04;97108.94;;;7.08
67515;BMP280;60646;55.802;37.032;2023-02-26T00:54:12;97098.53;;;7.10
67515;BMP280;60646;55.802;37.032;2023-02-26T00:56:40;97095.31;;;7.04
67515;BMP280;60646;55.802;37.032;2023-02-26T00:59:06;97081.66;;;7.00
67515;BMP280;60646;55.802;37.032;2023-02-26T01:01:31;97086.81;;;7.06
67515;BMP280;60646;55.802;37.032;2023-02-26T01:03:57;97097.88;;;7.17
67515;BMP280;60646;55.802;37.032;2023-02-26T01:06:26;97100.53;;;7.17
67515;BMP280;60646;55.802;37.032;2023-02-26T01:11:22;97075.34;;;7.03
67515;BMP280;60646;55.802;37.032;2023-02-26T01:13:48;97053.09;;;6.93
67515;BMP280;60646;55.802;37.032;2023-02-26T01:16:19;97066.31;;;7.06
67515;BMP280;60646;55.802;37.032;2023-02-26T01:18:49;97084.44;;;7.15
67515;BMP280;60646;55.802;37.032;2023-02-26T01:21:24;97049.03;;;6.92
67515;BMP280;60646;55.802;37.032;2023-02-26T01:23:52;97037.31;;;6.88
67515;BMP280;60646;55.802;37.032;2023-02-26T01:26:23;97062.81;;;7.11
67515;BMP280;60646;55.802;37.032;2023-02-26T01:28:51;97055.59;;;7.12
67515;BMP280;60646;55.802;37.032;2023-02-26T01:34:22;97049.16;;;7.07
67515;BMP280;60646;55.802;37.032;2023-02-26T01:37:25;97051.09;;;7.07
67515;BMP280;60646;55.802;37.032;2023-02-26T01:40:01;97041.72;;;7.06
67515;BMP280;60646;55.802;37.032;2023-02-26T01:42:34;97020.19;;;6.89
67515;BMP280;60646;55.802;37.032;2023-02-26T01:45:10;97036.94;;;7.04
67515;BMP280;60646;55.802;37.032;2023-02-26T01:48:02;97011.00;;;6.90
67515;BMP280;60646;55.802;37.032;2023-02-26T01:50:30;97019.47;;;6.88
67515;BMP280;60646;55.802;37.032;2023-02-26T01:55:27;97015.38;;;6.87
67515;BMP280;60646;55.802;37.032;2023-02-26T01:57:56;97008.66;;;6.86
67515;BMP280;60646;55.802;37.032;2023-02-26T02:00:23;97002.22;;;6.82
67515;BMP280;60646;55.802;37.032;2023-02-26T02:02:52;96996.41;;;6.83
67515;BMP280;60646;55.802;37.032;2023-02-26T02:05:38;97001.16;;;6.98
67515;BMP280;60646;55.802;37.032;2023-02-26T02:08:06;96982.13;;;6.86
67515;BMP280;60646;55.802;37.032;2023-02-26T02:10:32;96995.69;;;6.83
67515;BMP280;60646;55.802;37.032;2023-02-26T02:13:09;97008.91;;;6.96
67515;BMP280;60646;55.802;37.032;2023-02-26T02:18:46;97003.59;;;6.96
67515;BMP280;60646;55.802;37.032;2023-02-26T02:22:07;96982.94;;;6.81
67515;BMP280;60646;55.802;37.032;2023-02-26T02:24:14;96972.34;;;6.81
67515;BMP280;60646;55.802;37.032;2023-02-26T02:30:02;96988.78;;;7.00
67515;BMP280;60646;55.802;37.032;2023-02-26T02:33:02;96994.09;;;7.00
67515;BMP280;60646;55.802;37.032;2023-02-26T02:38:08;96982.19;;;6.94
67515;BMP280;60646;55.802;37.032;2023-02-26T02:40:39;96954.66;;;6.76
67515;BMP280;60646;55.802;37.032;2023-02-26T02:43:13;96984.53;;;6.97
67515;BMP280;60646;55.802;37.032;2023-02-26T02:51:19;96983.31;;;6.98
67515;BMP280;60646;55.802;37.032;2023-02-26T02:53:49;96975.13;;;6.96
67515;BMP280;60646;55.802;37.032;2023-02-26T02:56:19;96956.13;;;6.85
67515;BMP280;60646;55.802;37.032;2023-02-26T02:59:06;96939.44;;;6.77
67515;BMP280;60646;55.802;37.032;2023-02-26T03:01:38;96948.47;;;6.81
67515;BMP280;60646;55.802;37.032;2023-02-26T03:04:07;96952.56;;;6.82
67515;BMP280;60646;55.802;37.032;2023-02-26T03:06:34;96942.22;;;6.71
67515;BMP280;60646;55.802;37.032;2023-02-26T03:09:01;96972.47;;;6.96
67515;BMP280;60646;55.802;37.032;2023-02-26T03:11:29;96945.72;;;6.87
67515;BMP280;60646;55.802;37.032;2023-02-26T03:13:55;96933.44;;;6.76
67515;BMP280;60646;55.802;37.032;2023-02-26T03:19:30;96966.13;;;6.99
67515;BMP280;60646;55.802;37.032;2023-02-26T03:22:12;96937.03;;;6.86
67515;BMP280;60646;55.802;37.032;2023-02-26T03:24:56;96932.53;;;6.73
67515;BMP280;60646;55.802;37.032;2023-02-26T03:30:39;96964.41;;;7.02
67515;BMP280;60646;55.802;37.032;2023-02-26T03:33:18;96946.63;;;6.89
67515;BMP280;60646;55.802;37.032;2023-02-26T03:36:07;96974.50;;;7.03
67515;BMP280;60646;55.802;37.032;2023-02-26T03:41:35;96942.72;;;6.90
67515;BMP280;60646;55.802;37.032;2023-02-26T03:44:20;96943.78;;;6.87
67515;BMP280;60646;55.802;37.032;2023-02-26T03:46:53;96974.69;;;7.05
67515;BMP280;60646;55.802;37.032;2023-02-26T03:49:31;96958.66;;;6.90
67515;BMP280;60646;55.802;37.032;2023-02-26T03:51:59;96965.03;;;6.95
67515;BMP280;60646;55.802;37.032;2023-02-26T03:55:02;96963.31;;;6.97
67515;BMP280;60646;55.802;37.032;2023-02-26T03:57:58;96965.38;;;6.91
67515;BMP280;60646;55.802;37.032;2023-02-26T04:00:32;96993.84;;;7.11
67515;BMP280;60646;55.802;37.032;2023-02-26T04:03:06;96997.94;;;7.12
67515;BMP280;60646;55.802;37.032;2023-02-26T04:05:40;96967.69;;;6.95
67515;BMP280;60646;55.802;37.032;2023-02-26T04:08:07;97005.88;;;7.12
67515;BMP280;60646;55.802;37.032;2023-02-26T04:10:55;96979.41;;;6.99
67515;BMP280;60646;55.802;37.032;2023-02-26T04:13:23;97009.44;;;7.15
67515;BMP280;60646;55.802;37.032;2023-02-26T04:15:49;96993.91;;;6.98
67515;BMP280;60646;55.802;37.032;2023-02-26T04:18:15;96997.22;;;6.91
67515;BMP280;60646;55.802;37.032;2023-02-26T04:20:41;97025.22;;;7.20
67515;BMP280;60646;55.802;37.032;2023-02-26T04:23:08;97014.34;;;7.11
67515;BMP280;60646;55.802;37.032;2023-02-26T04:25:35;97035.00;;;7.25
67515;BMP280;60646;55.802;37.032;2023-02-26T04:28:01;97011.84;;;7.05
67515;BMP280;60646;55.802;37.032;2023-02-26T04:30:26;97029.75;;;7.12
67515;BMP280;60646;55.802;37.032;2023-02-26T04:32:52;97042.34;;;7.19
67515;BMP280;60646;55.802;37.032;2023-02-26T04:35:18;97046.22;;;7.18
67515;BMP280;60646;55.802;37.032;2023-02-26T04:37:44;97040.22;;;7.18
67515;BMP280;60646;55.802;37.032;2023-02-26T04:40:10;97023.53;;;7.10
67515;BMP280;60646;55.802;37.032;2023-02-26T04:42:36;97028.44;;;7.06
67515;BMP280;60646;55.802;37.032;2023-02-26T04:45:02;97082.50;;;7.37
67515;BMP280;60646;55.802;37.032;2023-02-26T04:47:29;97069.56;;;7.33
67515;BMP280;60646;55.802;37.032;2023-02-26T04:49:55;97062.56;;;7.22
67515;BMP280;60646;55.802;37.032;2023-02-26T04:52:21;97068.47;;;7.29
67515;BMP280;60646;55.802;37.032;2023-02-26T04:54:47;97075.72;;;7.28
67515;BMP280;60646;55.802;37.032;2023-02-26T04:57:15;97086.06;;;7.39
67515;BMP280;60646;55.802;37.032;2023-02-26T04:59:40;97055.06;;;7.13
67515;BMP280;60646;55.802;37.032;2023-02-26T05:02:07;97076.03;;;7.24
67515;BMP280;60646;55.802;37.032;2023-02-26T05:04:37;97085.25;;;7.31
67515;BMP280;60646;55.802;37.032;2023-02-26T05:07:03;97083.31;;;7.32
67515;BMP280;60646;55.802;37.032;2023-02-26T05:09:29;97072.78;;;7.18
67515;BMP280;60646;55.802;37.032;2023-02-26T05:11:54;97092.53;;;7.31
67515;BMP280;60646;55.802;37.032;2023-02-26T05:14:21;97096.59;;;7.32
67515;BMP280;60646;55.802;37.032;2023-02-26T05:16:48;97105.81;;;7.31
67515;BMP280;60646;55.802;37.032;2023-02-26T05:19:13;97111.13;;;7.31
67515;BMP280;60646;55.802;37.032;2023-02-26T05:21:39;97117.22;;;7.39
67515;BMP280;60646;55.802;37.032;2023-02-26T05:24:06;97125.38;;;7.41
67515;BMP280;60646;55.802;37.032;2023-02-26T05:26:32;97124.31;;;7.44
67515;BMP280;60646;55.802;37.032;2023-02-26T05:28:58;97134.94;;;7.44
67515;BMP280;60646;55.802;37.032;2023-02-26T05:31:24;97118.22;;;7.36
67515;BMP280;60646;55.802;37.032;2023-02-26T05:33:51;97137.06;;;7.45
67515;BMP280;60646;55.802;37.032;2023-02-26T05:36:17;97143.69;;;7.52
67515;BMP280;60646;55.802;37.032;2023-02-26T05:38:43;97144.41;;;7.52
67515;BMP280;60646;55.802;37.032;2023-02-26T05:41:09;97141.66;;;7.45
67515;BMP280;60646;55.802;37.032;2023-02-26T05:43:34;97148.41;;;7.46
67515;BMP280;60646;55.802;37.032;2023-02-26T05:46:00;97159.63;;;7.52
67515;BMP280;60646;55.802;37.032;2023-02-26T05:48:26;97194.69;;;7.71
67515;BMP280;60646;55.802;37.032;2023-02-26T05:50:52;97173.69;;;7.60
67515;BMP280;60646;55.802;37.032;2023-02-26T05:53:19;97199.66;;;7.74
67515;BMP280;60646;55.802;37.032;2023-02-26T05:55:45;97181.25;;;7.56
67515;BMP280;60646;55.802;37.032;2023-02-26T05:58:11;97191.03;;;7.61
67515;BMP280;60646;55.802;37.032;2023-02-26T06:00:37;97178.22;;;7.52
67515;BMP280;60646;55.802;37.032;2023-02-26T06:03:03;97215.06;;;7.76
67515;BMP280;60646;55.802;37.032;2023-02-26T06:05:29;97196.53;;;7.63
67515;BMP280;60646;55.802;37.032;2023-02-26T06:07:54;97196.00;;;7.64
67515;BMP280;60646;55.802;37.032;2023-02-26T06:10:20;97192.47;;;7.62
67515;BMP280;60646;55.802;37.032;2023-02-26T06:12:46;97233.75;;;7.84
67515;BMP280;60646;55.802;37.032;2023-02-26T06:15:12;97208.78;;;7.66
67515;BMP280;60646;55.802;37.032;2023-02-26T06:17:38;97236.19;;;7.82
67515;BMP280;60646;55.802;37.032;2023-02-26T06:20:04;97228.16;;;7.74
67515;BMP280;60646;55.802;37.032;2023-02-26T06:22:30;97210.53;;;7.63
67515;BMP280;60646;55.802;37.032;2023-02-26T06:24:56;97254.66;;;7.87
67515;BMP280;60646;55.802;37.032;2023-02-26T06:27:22;97225.69;;;7.76
67515;BMP280;60646;55.802;37.032;2023-02-26T06:29:48;97225.88;;;7.78
67515;BMP280;60646;55.802;37.032;2023-02-26T06:32:14;97227.09;;;7.77
67515;BMP280;60646;55.802;37.032;2023-02-26T06:34:39;97245.44;;;7.88
67515;BMP280;60646;55.802;37.032;2023-02-26T06:37:05;97231.81;;;7.84
67515;BMP280;60646;55.802;37.032;2023-02-26T06:39:31;97248.00;;;7.94
67515;BMP280;60646;55.802;37.032;2023-02-26T06:41:57;97246.03;;;7.94
67515;BMP280;60646;55.802;37.032;2023-02-26T06:44:22;97233.38;;;7.87
67515;BMP280;60646;55.802;37.032;2023-02-26T06:46:48;97258.69;;;8.01
67515;BMP280;60646;55.802;37.032;2023-02-26T06:49:14;97248.69;;;7.94
67515;BMP280;60646;55.802;37.032;2023-02-26T06:51:40;97254.97;;;8.04
67515;BMP280;60646;55.802;37.032;2023-02-26T06:54:06;97264.50;;;8.00
67515;BMP280;60646;55.802;37.032;2023-02-26T06:56:31;97258.28;;;7.97
67515;BMP280;60646;55.802;37.032;2023-02-26T06:58:57;97275.38;;;8.09
67515;BMP280;60646;55.802;37.032;2023-02-26T07:01:23;97282.53;;;8.14
67515;BMP280;60646;55.802;37.032;2023-02-26T07:03:49;97298.00;;;8.23
67515;BMP280;60646;55.802;37.032;2023-02-26T07:06:15;97281.78;;;8.06
67515;BMP280;60646;55.802;37.032;2023-02-26T07:08:41;97280.69;;;8.09
67515;BMP280;60646;55.802;37.032;2023-02-26T07:11:07;97282.13;;;8.10
67515;BMP280;60646;55.802;37.032;2023-02-26T07:13:35;97318.81;;;8.32
67515;BMP280;60646;55.802;37.032;2023-02-26T07:16:03;97295.31;;;8.16
67515;BMP280;60646;55.802;37.032;2023-02-26T07:18:35;97273.94;;;8.08
67515;BMP280;60646;55.802;37.032;2023-02-26T07:21:03;97279.88;;;8.14
67515;BMP280;60646;55.802;37.032;2023-02-26T07:23:29;97323.47;;;8.40
67515;BMP280;60646;55.802;37.032;2023-02-26T07:25:55;97298.22;;;8.25
67515;BMP280;60646;55.802;37.032;2023-02-26T07:28:22;97287.16;;;8.21
67515;BMP280;60646;55.802;37.032;2023-02-26T07:30:47;97293.47;;;8.31
67515;BMP280;60646;55.802;37.032;2023-02-26T07:33:14;97321.41;;;8.46
67515;BMP280;60646;55.802;37.032;2023-02-26T07:35:40;97289.19;;;8.28
67515;BMP280;60646;55.802;37.032;2023-02-26T07:38:05;97312.13;;;8.39
67515;BMP280;60646;55.802;37.032;2023-02-26T07:40:32;97323.59;;;8.55
67515;BMP280;60646;55.802;37.032;2023-02-26T07:42:58;97329.84;;;8.57
67515;BMP280;60646;55.802;37.032;2023-02-26T07:45:24;97327.00;;;8.63
67515;BMP280;60646;55.802;37.032;2023-02-26T07:47:51;97290.53;;;8.43
67515;BMP280;60646;55.802;37.032;2023-02-26T07:50:18;97335.56;;;8.69
67515;BMP280;60646;55.802;37.032;2023-02-26T07:52:47;97305.50;;;8.53
67515;BMP280;60646;55.802;37.032;2023-02-26T07:55:13;97319.72;;;8.56
67515;BMP280;60646;55.802;37.032;2023-02-26T07:57:39;97326.06;;;8.53
67515;BMP280;60646;55.802;37.032;2023-02-26T08:00:05;97346.31;;;8.56
67515;BMP280;60646;55.802;37.032;2023-02-26T08:02:38;97355.25;;;8.66
67515;BMP280;60646;55.802;37.032;2023-02-26T08:05:04;97338.09;;;8.46
67515;BMP280;60646;55.802;37.032;2023-02-26T08:07:30;97341.56;;;8.41
67515;BMP280;60646;55.802;37.032;2023-02-26T08:09:56;97344.19;;;8.33
67515;BMP280;60646;55.802;37.032;2023-02-26T08:12:22;97366.00;;;8.40
67515;BMP280;60646;55.802;37.032;2023-02-26T08:14:48;97389.84;;;8.45
67515;BMP280;60646;55.802;37.032;2023-02-26T08:17:13;97373.44;;;8.33
67515;BMP280;60646;55.802;37.032;2023-02-26T08:19:39;97395.88;;;8.46
67515;BMP280;60646;55.802;37.032;2023-02-26T08:22:05;97365.91;;;8.24
67515;BMP280;60646;55.802;37.032;2023-02-26T08:24:31;97386.91;;;8.36
67515;BMP280;60646;55.802;37.032;2023-02-26T08:26:57;97387.28;;;8.40
67515;BMP280;60646;55.802;37.032;2023-02-26T08:29:23;97388.34;;;8.37
67515;BMP280;60646;55.802;37.032;2023-02-26T08:31:50;97400.22;;;8.36
67515;BMP280;60646;55.802;37.032;2023-02-26T08:34:17;97410.41;;;8.45
67515;BMP280;60646;55.802;37.032;2023-02-26T08:36:42;97397.25;;;8.39
67515;BMP280;60646;55.802;37.032;2023-02-26T08:39:08;97399.19;;;8.39
67515;BMP280;60646;55.802;37.032;2023-02-26T08:41:34;97412.56;;;8.46
67515;BMP280;60646;55.802;37.032;2023-02-26T08:44:01;97382.25;;;8.28
67515;BMP280;60646;55.802;37.032;2023-02-26T08:46:27;97424.94;;;8.44
67515;BMP280;60646;55.802;37.032;2023-02-26T08:48:53;97408.00;;;8.33
67515;BMP280;60646;55.802;37.032;2023-02-26T08:51:20;97426.34;;;8.45
67515;BMP280;60646;55.802;37.032;2023-02-26T08:53:46;97412.09;;;8.35
67515;BMP280;60646;55.802;37.032;2023-02-26T08:56:12;97431.28;;;8.41
67515;BMP280;60646;55.802;37.032;2023-02-26T08:58:38;97430.78;;;8.42
67515;BMP280;60646;55.802;37.032;2023-02-26T09:01:04;97445.34;;;8.49
67515;BMP280;60646;55.802;37.032;2023-02-26T09:03:30;97418.84;;;8.36
67515;BMP280;60646;55.802;37.032;2023-02-26T09:05:56;97435.59;;;8.44
67515;BMP280;60646;55.802;37.032;2023-02-26T09:08:22;97445.56;;;8.51
67515;BMP280;60646;55.802;37.032;2023-02-26T09:10:47;97453.03;;;8.52
67515;BMP280;60646;55.802;37.032;2023-02-26T09:13:14;97478.00;;;8.70
67515;BMP280;60646;55.802;37.032;2023-02-26T09:15:40;97476.41;;;8.67
67515;BMP280;60646;55.802;37.032;2023-02-26T09:18:05;97463.22;;;8.61
67515;BMP280;60646;55.802;37.032;2023-02-26T09:20:31;97461.06;;;8.60
67515;BMP280;60646;55.802;37.032;2023-02-26T09:22:57;97455.56;;;8.58
67515;BMP280;60646;55.802;37.032;2023-02-26T09:25:23;97494.97;;;8.80
67515;BMP280;60646;55.802;37.032;2023-02-26T09:27:49;97477.66;;;8.66
67515;BMP280;60646;55.802;37.032;2023-02-26T09:30:15;97488.66;;;8.70
67515;BMP280;60646;55.802;37.032;2023-02-26T09:32:41;97501.69;;;8.81
67515;BMP280;60646;55.802;37.032;2023-02-26T09:35:07;97487.44;;;8.71
67515;BMP280;60646;55.802;37.032;2023-02-26T09:37:34;97471.53;;;8.58
67515;BMP280;60646;55.802;37.032;2023-02-26T09:40:00;97503.34;;;8.84
67515;BMP280;60646;55.802;37.032;2023-02-26T09:44:58;97485.63;;;8.66
67515;BMP280;60646;55.802;37.032;2023-02-26T09:52:32;97505.63;;;8.80
67515;BMP280;60646;55.802;37.032;2023-02-26T09:55:08;97491.13;;;8.68
67515;BMP280;60646;55.802;37.032;2023-02-26T09:57:40;97526.03;;;8.85
67515;BMP280;60646;55.802;37.032;2023-02-26T10:08:04;97490.34;;;8.60
67515;BMP280;60646;55.802;37.032;2023-02-26T10:11:07;97534.63;;;8.91
67515;BMP280;60646;55.802;37.032;2023-02-26T10:13:41;97511.97;;;8.77
67515;BMP280;60646;55.802;37.032;2023-02-26T10:16:15;97533.59;;;8.94
67515;BMP280;60646;55.802;37.032;2023-02-26T10:18:47;97487.94;;;8.69
67515;BMP280;60646;55.802;37.032;2023-02-26T10:21:39;97517.03;;;8.88
67515;BMP280;60646;55.802;37.032;2023-02-26T10:24:15;97521.13;;;8.89
67515;BMP280;60646;55.802;37.032;2023-02-26T10:26:49;97538.50;;;8.90
67515;BMP280;60646;55.802;37.032;2023-02-26T10:34:35;97528.56;;;8.91
67515;BMP280;60646;55.802;37.032;2023-02-26T10:37:27;97551.47;;;9.07
67515;BMP280;60646;55.802;37.032;2023-02-26T10:40:07;97532.16;;;8.93
67515;BMP280;60646;55.802;37.032;2023-02-26T10:42:42;97545.75;;;9.03
67515;BMP280;60646;55.802;37.032;2023-02-26T10:45:36;97536.31;;;9.02
67515;BMP280;60646;55.802;37.032;2023-02-26T10:50:53;97561.78;;;9.10
67515;BMP280;60646;55.802;37.032;2023-02-26T10:53:21;97526.84;;;8.93
67515;BMP280;60646;55.802;37.032;2023-02-26T10:55:52;97565.72;;;9.17
67515;BMP280;60646;55.802;37.032;2023-02-26T10:58:24;97547.88;;;9.04
67515;BMP280;60646;55.802;37.032;2023-02-26T11:00:54;97547.88;;;9.04
67515;BMP280;60646;55.802;37.032;2023-02-26T11:03:30;97574.25;;;9.15
67515;BMP280;60646;55.802;37.032;2023-02-26T11:05:57;97539.13;;;8.96
67515;BMP280;60646;55.802;37.032;2023-02-26T11:08:29;97558.66;;;9.19
67515;BMP280;60646;55.802;37.032;2023-02-26T11:10:59;97562.50;;;9.11
67515;BMP280;60646;55.802;37.032;2023-02-26T11:13:27;97562.75;;;9.20
67515;BMP280;60646;55.802;37.032;2023-02-26T11:16:11;97549.72;;;9.17
67515;BMP280;60646;55.802;37.032;2023-02-26T11:18:47;97574.34;;;9.30
67515;BMP280;60646;55.802;37.032;2023-02-26T11:21:22;97568.72;;;9.34
67515;BMP280;60646;55.802;37.032;2023-02-26T11:23:58;97549.44;;;9.20
67515;BMP280;60646;55.802;37.032;2023-02-26T11:26:31;97603.41;;;9.41
67515;BMP280;60646;55.802;37.032;2023-02-26T11:28:58;97630.59;;;9.27
67515;BMP280;60646;55.802;37.032;2023-02-26T11:31:25;97649.00;;;9.38
67515;BMP280;60646;55.802;37.032;2023-02-26T11:34:11;97640.75;;;9.28
67515;BMP280;60646;55.802;37.032;2023-02-26T11:36:39;97644.50;;;9.12
67515;BMP280;60646;55.802;37.032;2023-02-26T11:39:23;97647.13;;;8.92
67515;BMP280;60646;55.802;37.032;2023-02-26T11:41:56;97642.69;;;8.73
67515;BMP280;60646;55.802;37.032;2023-02-26T11:44:38;97643.47;;;8.48
67515;BMP280;60646;55.802;37.032;2023-02-26T11:47:10;97643.03;;;8.44
67515;BMP280;60646;55.802;37.032;2023-02-26T11:49:43;97653.47;;;8.28
67515;BMP280;60646;55.802;37.032;2023-02-26T11:54:37;97625.75;;;7.85
67515;BMP280;60646;55.802;37.032;2023-02-26T11:57:16;97662.84;;;8.03
67515;BMP280;60646;55.802;37.032;2023-02-26T11:59:48;97671.03;;;7.92
67515;BMP280;60646;55.802;37.032;2023-02-26T12:02:14;97671.63;;;7.85
67515;BMP280;60646;55.802;37.032;2023-02-26T12:04:44;97649.09;;;7.60
67515;BMP280;60646;55.802;37.032;2023-02-26T12:07:13;97657.63;;;7.53
67515;BMP280;60646;55.802;37.032;2023-02-26T12:09:39;97660.50;;;7.55
67515;BMP280;60646;55.802;37.032;2023-02-26T12:22:59;97673.94;;;7.62
67515;BMP280;60646;55.802;37.032;2023-02-26T12:33:26;97679.25;;;7.75
67515;BMP280;60646;55.802;37.032;2023-02-26T12:38:34;97675.38;;;7.76
67515;BMP280;60646;55.802;37.032;2023-02-26T12:41:38;97683.06;;;7.80
67515;BMP280;60646;55.802;37.032;2023-02-26T12:44:11;97685.44;;;7.84
67515;BMP280;60646;55.802;37.032;2023-02-26T13:01:39;97720.47;;;7.50
67515;BMP280;60646;55.802;37.032;2023-02-26T13:04:27;97756.44;;;7.51
67515;BMP280;60646;55.802;37.032;2023-02-26T13:07:02;97755.63;;;7.38
67515;BMP280;60646;55.802;37.032;2023-02-26T13:15:21;97781.16;;;7.03
67515;BMP280;60646;55.802;37.032;2023-02-26T13:18:08;97764.75;;;6.81
67515;BMP280;60646;55.802;37.032;2023-02-26T13:20:39;97753.38;;;6.61
67515;BMP280;60646;55.802;37.032;2023-02-26T13:23:14;97759.63;;;6.58
67515;BMP280;60646;55.802;37.032;2023-02-26T13:25:56;97764.94;;;6.58
67515;BMP280;60646;55.802;37.032;2023-02-26T13:28:42;97800.59;;;6.63
67515;BMP280;60646;55.802;37.032;2023-02-26T13:31:31;97804.03;;;6.58
67515;BMP280;60646;55.802;37.032;2023-02-26T13:34:03;97783.22;;;6.38
67515;BMP280;60646;55.802;37.032;2023-02-26T13:36:29;97793.34;;;6.39
67515;BMP280;60646;55.802;37.032;2023-02-26T13:41:28;97811.81;;;6.45
67515;BMP280;60646;55.802;37.032;2023-02-26T13:52:01;97824.00;;;6.29
67515;BMP280;60646;55.802;37.032;2023-02-26T13:54:49;97803.38;;;6.16
67515;BMP280;60646;55.802;37.032;2023-02-26T14:02:33;97857.00;;;6.28
67515;BMP280;60646;55.802;37.032;2023-02-26T14:05:00;97854.88;;;6.27
67515;BMP280;60646;55.802;37.032;2023-02-26T14:07:47;97861.63;;;6.28
67515;BMP280;60646;55.802;37.032;2023-02-26T14:10:22;97871.75;;;6.23
67515;BMP280;60646;55.802;37.032;2023-02-26T14:13:06;97868.94;;;6.10
67515;BMP280;60646;55.802;37.032;2023-02-26T14:15:42;97880.44;;;6.18
67515;BMP280;60646;55.802;37.032;2023-02-26T14:18:49;97876.84;;;6.16
67515;BMP280;60646;55.802;37.032;2023-02-26T14:21:36;97855.81;;;5.94
67515;BMP280;60646;55.802;37.032;2023-02-26T14:26:45;97878.41;;;6.00
67515;BMP280;60646;55.802;37.032;2023-02-26T14:29:13;97889.69;;;6.06
67515;BMP280;60646;55.802;37.032;2023-02-26T14:32:03;97896.66;;;6.09
67515;BMP280;60646;55.802;37.032;2023-02-26T14:34:33;97877.03;;;5.83
67515;BMP280;60646;55.802;37.032;2023-02-26T14:37:03;97887.81;;;5.90
67515;BMP280;60646;55.802;37.032;2023-02-26T14:39:59;97917.84;;;6.04
67515;BMP280;60646;55.802;37.032;2023-02-26T14:42:57;97897.03;;;5.84
67515;BMP280;60646;55.802;37.032;2023-02-26T14:47:53;97909.53;;;5.83
67515;BMP280;60646;55.802;37.032;2023-02-26T14:50:21;97922.75;;;5.89
67515;BMP280;60646;55.802;37.032;2023-02-26T14:53:06;97928.75;;;5.95
67515;BMP280;60646;55.802;37.032;2023-02-26T15:09:10;97968.31;;;5.76
67515;BMP280;60646;55.802;37.032;2023-02-26T15:12:08;97958.22;;;5.69
67515;BMP280;60646;55.802;37.032;2023-02-26T15:15:06;97975.56;;;5.70
67515;BMP280;60646;55.802;37.032;2023-02-26T15:23:55;97991.22;;;5.57
67515;BMP280;60646;55.802;37.032;2023-02-26T15:25:56;97992.19;;;5.54
67515;BMP280;60646;55.802;37.032;2023-02-26T15:28:26;98004.00;;;5.53
67515;BMP280;60646;55.802;37.032;2023-02-26T15:30:54;97985.69;;;5.33
67515;BMP280;60646;55.802;37.032;2023-02-26T15:33:22;98011.19;;;5.47
67515;BMP280;60646;55.802;37.032;2023-02-26T15:35:49;98025.16;;;5.42
67515;BMP280;60646;55.802;37.032;2023-02-26T15:38:16;98001.34;;;5.25
67515;BMP280;60646;55.802;37.032;2023-02-26T15:40:43;98013.13;;;5.30
67515;BMP280;60646;55.802;37.032;2023-02-26T15:43:14;98000.59;;;5.25
67515;BMP280;60646;55.802;37.032;2023-02-26T15:45:43;98014.56;;;5.19
67515;BMP280;60646;55.802;37.032;2023-02-26T15:48:20;98036.69;;;5.28
67515;BMP280;60646;55.802;37.032;2023-02-26T15:50:53;98024.41;;;5.08
67515;BMP280;60646;55.802;37.032;2023-02-26T15:53:28;98040.78;;;5.12
67515;BMP280;60646;55.802;37.032;2023-02-26T15:55:56;98035.22;;;4.93
67515;BMP280;60646;55.802;37.032;2023-02-26T15:58:39;98041.97;;;5.00
67515;BMP280;60646;55.802;37.032;2023-02-26T16:01:14;98015.47;;;4.72
67515;BMP280;60646;55.802;37.032;2023-02-26T16:03:40;98057.78;;;4.83
67515;BMP280;60646;55.802;37.032;2023-02-26T16:06:11;98073.22;;;4.90
67515;BMP280;60646;55.802;37.032;2023-02-26T16:08:38;98056.53;;;4.73
67515;BMP280;60646;55.802;37.032;2023-02-26T16:11:04;98060.16;;;4.70
67515;BMP280;60646;55.802;37.032;2023-02-26T16:13:32;98073.16;;;4.79
67515;BMP280;60646;55.802;37.032;2023-02-26T16:16:01;98057.47;;;4.53
67515;BMP280;60646;55.802;37.032;2023-02-26T16:18:30;98075.03;;;4.62
67515;BMP280;60646;55.802;37.032;2023-02-26T16:21:02;98096.22;;;4.73
67515;BMP280;60646;55.802;37.032;2023-02-26T16:23:44;98073.31;;;4.59
67515;BMP280;60646;55.802;37.032;2023-02-26T16:26:19;98094.28;;;4.68
67515;BMP280;60646;55.802;37.032;2023-02-26T16:28:47;98109.63;;;4.64
67515;BMP280;60646;55.802;37.032;2023-02-26T16:31:20;98097.09;;;4.48
67515;BMP280;60646;55.802;37.032;2023-02-26T16:33:55;98121.16;;;4.61
67515;BMP280;60646;55.802;37.032;2023-02-26T16:36:40;98125.94;;;4.57
67515;BMP280;60646;55.802;37.032;2023-02-26T16:41:37;98132.41;;;4.50
67515;BMP280;60646;55.802;37.032;2023-02-26T16:44:44;98143.19;;;4.47
67515;BMP280;60646;55.802;37.032;2023-02-26T16:47:11;98141.47;;;4.38
67515;BMP280;60646;55.802;37.032;2023-02-26T16:49:39;98148.41;;;4.36
67515;BMP280;60646;55.802;37.032;2023-02-26T16:52:06;98156.59;;;4.38
67515;BMP280;60646;55.802;37.032;2023-02-26T16:54:40;98127.13;;;4.13
67515;BMP280;60646;55.802;37.032;2023-02-26T16:57:18;98144.94;;;4.18
67515;BMP280;60646;55.802;37.032;2023-02-26T16:59:54;98167.63;;;4.31